sensor_id;sensor_type;location;lat;lon;timestamp;P1;durP1;ratioP1;P2;durP2;ratioP2
29534;SDS011;16475;52.650;8.116;2023-05-09T00:01:09;3.40;;;3.10;;
29534;SDS011;16475;52.650;8.116;2023-05-09T00:03:35;4.57;;;2.40;;
29534;SDS011;16475;52.650;8.116;2023-05-09T00:06:01;5.13;;;3.93;;
29534;SDS011;16475;52.650;8.116;2023-05-09T00:08:26;4.63;;;3.03;;
29534;SDS011;16475;52.650;8.116;2023-05-09T00:10:51;4.17;;;3.17;;
29534;SDS011;16475;52.650;8.116;2023-05-09T00:13:17;5.63;;;3.50;;
29534;SDS011;16475;52.650;8.116;2023-05-09T00:15:43;2.40;;;2.13;;
29534;SDS011;16475;52.650;8.116;2023-05-09T00:18:08;6.40;;;2.60;;
29534;SDS011;16475;52.650;8.116;2023-05-09T00:20:35;7.23;;;2.73;;
29534;SDS011;16475;52.650;8.116;2023-05-09T00:23:00;3.80;;;3.13;;
29534;SDS011;16475;52.650;8.116;2023-05-09T00:25:25;5.90;;;2.50;;
29534;SDS011;16475;52.650;8.116;2023-05-09T00:27:51;3.50;;;3.20;;
29534;SDS011;16475;52.650;8.116;2023-05-09T00:30:16;9.73;;;3.97;;
29534;SDS011;16475;52.650;8.116;2023-05-09T00:32:42;2.60;;;2.40;;
29534;SDS011;16475;52.650;8.116;2023-05-09T00:35:07;2.87;;;2.60;;
29534;SDS011;16475;52.650;8.116;2023-05-09T00:37:33;5.00;;;3.43;;
29534;SDS011;16475;52.650;8.116;2023-05-09T00:39:59;8.60;;;3.40;;
29534;SDS011;16475;52.650;8.116;2023-05-09T00:42:24;2.57;;;1.93;;
29534;SDS011;16475;52.650;8.116;2023-05-09T00:44:49;5.00;;;3.23;;
29534;SDS011;16475;52.650;8.116;2023-05-09T00:47:15;5.87;;;4.30;;
29534;SDS011;16475;52.650;8.116;2023-05-09T00:49:40;4.03;;;2.80;;
29534;SDS011;16475;52.650;8.116;2023-05-09T00:52:05;5.47;;;3.37;;
29534;SDS011;16475;52.650;8.116;2023-05-09T00:54:31;7.07;;;2.43;;
29534;SDS011;16475;52.650;8.116;2023-05-09T00:56:56;10.13;;;2.60;;
29534;SDS011;16475;52.650;8.116;2023-05-09T00:59:21;5.47;;;4.90;;
29534;SDS011;16475;52.650;8.116;2023-05-09T01:01:47;3.50;;;2.73;;
29534;SDS011;16475;52.650;8.116;2023-05-09T01:04:12;3.23;;;2.97;;
29534;SDS011;16475;52.650;8.116;2023-05-09T01:17:00;4.53;;;3.60;;
29534;SDS011;16475;52.650;8.116;2023-05-09T01:22:14;12.60;;;3.63;;
29534;SDS011;16475;52.650;8.116;2023-05-09T01:30:10;3.60;;;3.27;;
29534;SDS011;16475;52.650;8.116;2023-05-09T01:32:37;3.40;;;3.10;;
29534;SDS011;16475;52.650;8.116;2023-05-09T01:35:03;5.10;;;3.27;;
29534;SDS011;16475;52.650;8.116;2023-05-09T01:37:33;4.17;;;2.73;;
29534;SDS011;16475;52.650;8.116;2023-05-09T01:40:09;22.53;;;3.97;;
29534;SDS011;16475;52.650;8.116;2023-05-09T01:45:22;5.90;;;4.03;;
29534;SDS011;16475;52.650;8.116;2023-05-09T01:47:48;3.47;;;2.93;;
29534;SDS011;16475;52.650;8.116;2023-05-09T01:50:14;3.93;;;3.10;;
29534;SDS011;16475;52.650;8.116;2023-05-09T01:52:41;3.53;;;3.23;;
29534;SDS011;16475;52.650;8.116;2023-05-09T01:55:07;2.27;;;2.07;;
29534;SDS011;16475;52.650;8.116;2023-05-09T01:57:33;4.10;;;3.30;;
29534;SDS011;16475;52.650;8.116;2023-05-09T01:59:59;7.67;;;4.23;;
29534;SDS011;16475;52.650;8.116;2023-05-09T02:02:25;4.37;;;3.70;;
29534;SDS011;16475;52.650;8.116;2023-05-09T02:04:51;3.77;;;2.50;;
29534;SDS011;16475;52.650;8.116;2023-05-09T02:07:19;11.13;;;3.50;;
29534;SDS011;16475;52.650;8.116;2023-05-09T02:09:45;3.70;;;2.93;;
29534;SDS011;16475;52.650;8.116;2023-05-09T02:12:12;4.77;;;4.17;;
29534;SDS011;16475;52.650;8.116;2023-05-09T02:14:37;4.23;;;3.17;;
29534;SDS011;16475;52.650;8.116;2023-05-09T02:17:02;4.00;;;2.60;;
29534;SDS011;16475;52.650;8.116;2023-05-09T02:19:32;3.47;;;2.93;;
29534;SDS011;16475;52.650;8.116;2023-05-09T02:21:58;3.17;;;2.97;;
29534;SDS011;16475;52.650;8.116;2023-05-09T02:24:24;3.90;;;3.50;;
29534;SDS011;16475;52.650;8.116;2023-05-09T02:26:49;13.17;;;3.27;;
29534;SDS011;16475;52.650;8.116;2023-05-09T02:29:16;16.00;;;2.47;;
29534;SDS011;16475;52.650;8.116;2023-05-09T02:31:43;2.50;;;2.30;;
29534;SDS011;16475;52.650;8.116;2023-05-09T02:34:11;2.47;;;2.03;;
29534;SDS011;16475;52.650;8.116;2023-05-09T02:36:37;2.80;;;2.60;;
29534;SDS011;16475;52.650;8.116;2023-05-09T02:39:02;6.33;;;3.70;;
29534;SDS011;16475;52.650;8.116;2023-05-09T02:41:28;4.00;;;2.60;;
29534;SDS011;16475;52.650;8.116;2023-05-09T02:43:54;5.07;;;3.40;;
29534;SDS011;16475;52.650;8.116;2023-05-09T02:46:19;7.37;;;3.93;;
29534;SDS011;16475;52.650;8.116;2023-05-09T02:48:45;3.33;;;3.13;;
29534;SDS011;16475;52.650;8.116;2023-05-09T02:51:10;3.10;;;2.80;;
29534;SDS011;16475;52.650;8.116;2023-05-09T02:53:35;3.37;;;3.10;;
29534;SDS011;16475;52.650;8.116;2023-05-09T02:56:01;2.73;;;2.50;;
29534;SDS011;16475;52.650;8.116;2023-05-09T02:58:27;4.23;;;3.63;;
29534;SDS011;16475;52.650;8.116;2023-05-09T03:00:53;2.50;;;2.33;;
29534;SDS011;16475;52.650;8.116;2023-05-09T03:03:18;2.50;;;2.00;;
29534;SDS011;16475;52.650;8.116;2023-05-09T03:05:43;8.43;;;3.23;;
29534;SDS011;16475;52.650;8.116;2023-05-09T03:08:09;3.23;;;2.93;;
29534;SDS011;16475;52.650;8.116;2023-05-09T03:10:34;3.30;;;2.93;;
29534;SDS011;16475;52.650;8.116;2023-05-09T03:12:59;3.60;;;2.73;;
29534;SDS011;16475;52.650;8.116;2023-05-09T03:15:25;2.70;;;2.30;;
29534;SDS011;16475;52.650;8.116;2023-05-09T03:17:50;4.47;;;2.37;;
29534;SDS011;16475;52.650;8.116;2023-05-09T03:20:16;2.70;;;2.50;;
29534;SDS011;16475;52.650;8.116;2023-05-09T03:22:41;3.20;;;3.00;;
29534;SDS011;16475;52.650;8.116;2023-05-09T03:25:07;3.27;;;2.97;;
29534;SDS011;16475;52.650;8.116;2023-05-09T03:27:32;2.50;;;2.30;;
29534;SDS011;16475;52.650;8.116;2023-05-09T03:29:57;5.73;;;3.03;;
29534;SDS011;16475;52.650;8.116;2023-05-09T03:32:23;2.60;;;2.27;;
29534;SDS011;16475;52.650;8.116;2023-05-09T03:34:48;5.13;;;2.93;;
29534;SDS011;16475;52.650;8.116;2023-05-09T03:37:13;1.70;;;1.60;;
29534;SDS011;16475;52.650;8.116;2023-05-09T03:39:39;3.27;;;3.00;;
29534;SDS011;16475;52.650;8.116;2023-05-09T03:42:04;4.13;;;2.60;;
29534;SDS011;16475;52.650;8.116;2023-05-09T03:44:30;2.37;;;2.20;;
29534;SDS011;16475;52.650;8.116;2023-05-09T03:46:55;2.33;;;2.13;;
29534;SDS011;16475;52.650;8.116;2023-05-09T03:49:20;2.30;;;2.20;;
29534;SDS011;16475;52.650;8.116;2023-05-09T03:51:45;3.60;;;2.10;;
29534;SDS011;16475;52.650;8.116;2023-05-09T03:54:11;3.07;;;2.83;;
29534;SDS011;16475;52.650;8.116;2023-05-09T03:56:36;15.33;;;1.93;;
29534;SDS011;16475;52.650;8.116;2023-05-09T03:59:01;2.20;;;2.10;;
29534;SDS011;16475;52.650;8.116;2023-05-09T04:01:27;3.30;;;3.00;;
29534;SDS011;16475;52.650;8.116;2023-05-09T04:03:52;5.20;;;2.77;;
29534;SDS011;16475;52.650;8.116;2023-05-09T04:06:17;2.57;;;2.43;;
29534;SDS011;16475;52.650;8.116;2023-05-09T04:08:43;3.07;;;2.77;;
29534;SDS011;16475;52.650;8.116;2023-05-09T04:11:09;1.50;;;1.50;;
29534;SDS011;16475;52.650;8.116;2023-05-09T04:13:34;3.03;;;2.80;;
29534;SDS011;16475;52.650;8.116;2023-05-09T04:15:59;3.13;;;2.50;;
29534;SDS011;16475;52.650;8.116;2023-05-09T04:18:25;2.10;;;1.70;;
29534;SDS011;16475;52.650;8.116;2023-05-09T04:20:51;2.00;;;1.90;;
29534;SDS011;16475;52.650;8.116;2023-05-09T04:23:16;2.50;;;2.30;;
29534;SDS011;16475;52.650;8.116;2023-05-09T04:25:41;2.03;;;1.93;;
29534;SDS011;16475;52.650;8.116;2023-05-09T04:28:06;2.80;;;2.60;;
29534;SDS011;16475;52.650;8.116;2023-05-09T04:30:32;2.63;;;2.43;;
29534;SDS011;16475;52.650;8.116;2023-05-09T04:32:57;3.23;;;2.10;;
29534;SDS011;16475;52.650;8.116;2023-05-09T04:35:22;2.33;;;1.90;;
29534;SDS011;16475;52.650;8.116;2023-05-09T04:37:48;2.33;;;2.03;;
29534;SDS011;16475;52.650;8.116;2023-05-09T04:40:13;18.23;;;2.60;;
29534;SDS011;16475;52.650;8.116;2023-05-09T04:42:39;2.27;;;2.07;;
29534;SDS011;16475;52.650;8.116;2023-05-09T04:45:05;5.63;;;2.87;;
29534;SDS011;16475;52.650;8.116;2023-05-09T04:47:31;1.77;;;1.70;;
29534;SDS011;16475;52.650;8.116;2023-05-09T04:49:56;2.00;;;1.90;;
29534;SDS011;16475;52.650;8.116;2023-05-09T04:52:22;1.80;;;1.70;;
29534;SDS011;16475;52.650;8.116;2023-05-09T04:54:47;2.47;;;2.13;;
29534;SDS011;16475;52.650;8.116;2023-05-09T04:57:12;1.93;;;1.37;;
29534;SDS011;16475;52.650;8.116;2023-05-09T04:59:38;3.20;;;2.10;;
29534;SDS011;16475;52.650;8.116;2023-05-09T05:02:03;2.23;;;2.03;;
29534;SDS011;16475;52.650;8.116;2023-05-09T05:04:28;1.93;;;1.83;;
29534;SDS011;16475;52.650;8.116;2023-05-09T05:06:54;2.10;;;1.90;;
29534;SDS011;16475;52.650;8.116;2023-05-09T05:09:19;4.33;;;2.80;;
29534;SDS011;16475;52.650;8.116;2023-05-09T05:11:44;2.47;;;2.27;;
29534;SDS011;16475;52.650;8.116;2023-05-09T05:14:10;4.83;;;2.40;;
29534;SDS011;16475;52.650;8.116;2023-05-09T05:16:35;2.20;;;1.83;;
29534;SDS011;16475;52.650;8.116;2023-05-09T05:19:01;5.50;;;2.30;;
29534;SDS011;16475;52.650;8.116;2023-05-09T05:21:26;2.47;;;2.27;;
29534;SDS011;16475;52.650;8.116;2023-05-09T05:23:51;12.90;;;2.30;;
29534;SDS011;16475;52.650;8.116;2023-05-09T05:26:16;1.33;;;1.33;;
29534;SDS011;16475;52.650;8.116;2023-05-09T05:28:42;2.20;;;1.57;;
29534;SDS011;16475;52.650;8.116;2023-05-09T05:31:07;1.80;;;1.70;;
29534;SDS011;16475;52.650;8.116;2023-05-09T05:33:33;3.53;;;2.83;;
29534;SDS011;16475;52.650;8.116;2023-05-09T05:35:58;2.47;;;1.90;;
29534;SDS011;16475;52.650;8.116;2023-05-09T05:38:23;2.03;;;1.93;;
29534;SDS011;16475;52.650;8.116;2023-05-09T05:40:49;2.87;;;2.43;;
29534;SDS011;16475;52.650;8.116;2023-05-09T05:43:14;4.67;;;2.40;;
29534;SDS011;16475;52.650;8.116;2023-05-09T05:45:39;2.03;;;1.70;;
29534;SDS011;16475;52.650;8.116;2023-05-09T05:48:05;2.17;;;2.07;;
29534;SDS011;16475;52.650;8.116;2023-05-09T05:50:30;3.30;;;2.40;;
29534;SDS011;16475;52.650;8.116;2023-05-09T05:52:56;2.40;;;2.20;;
29534;SDS011;16475;52.650;8.116;2023-05-09T05:55:21;2.37;;;2.20;;
29534;SDS011;16475;52.650;8.116;2023-05-09T05:57:46;2.03;;;1.83;;
29534;SDS011;16475;52.650;8.116;2023-05-09T06:00:12;2.50;;;2.30;;
29534;SDS011;16475;52.650;8.116;2023-05-09T06:02:41;3.40;;;3.10;;
29534;SDS011;16475;52.650;8.116;2023-05-09T06:05:10;3.07;;;2.77;;
29534;SDS011;16475;52.650;8.116;2023-05-09T06:07:35;2.47;;;2.27;;
29534;SDS011;16475;52.650;8.116;2023-05-09T06:10:01;3.23;;;2.77;;
29534;SDS011;16475;52.650;8.116;2023-05-09T06:12:26;4.50;;;2.30;;
29534;SDS011;16475;52.650;8.116;2023-05-09T06:14:51;2.90;;;2.70;;
29534;SDS011;16475;52.650;8.116;2023-05-09T06:17:17;4.13;;;3.20;;
29534;SDS011;16475;52.650;8.116;2023-05-09T06:19:42;1.97;;;1.73;;
29534;SDS011;16475;52.650;8.116;2023-05-09T06:22:07;2.57;;;2.37;;
29534;SDS011;16475;52.650;8.116;2023-05-09T06:24:33;2.90;;;2.47;;
29534;SDS011;16475;52.650;8.116;2023-05-09T06:26:58;3.10;;;2.80;;
29534;SDS011;16475;52.650;8.116;2023-05-09T06:29:23;5.50;;;3.10;;
29534;SDS011;16475;52.650;8.116;2023-05-09T06:31:49;3.10;;;2.90;;
29534;SDS011;16475;52.650;8.116;2023-05-09T06:34:14;2.67;;;2.43;;
29534;SDS011;16475;52.650;8.116;2023-05-09T06:36:39;6.30;;;4.10;;
29534;SDS011;16475;52.650;8.116;2023-05-09T06:39:05;5.97;;;3.33;;
29534;SDS011;16475;52.650;8.116;2023-05-09T06:41:30;4.57;;;3.97;;
29534;SDS011;16475;52.650;8.116;2023-05-09T06:43:55;3.63;;;3.13;;
29534;SDS011;16475;52.650;8.116;2023-05-09T06:46:21;4.83;;;3.50;;
29534;SDS011;16475;52.650;8.116;2023-05-09T06:48:46;9.10;;;2.40;;
29534;SDS011;16475;52.650;8.116;2023-05-09T06:51:12;9.77;;;3.87;;
29534;SDS011;16475;52.650;8.116;2023-05-09T06:53:37;3.97;;;3.30;;
29534;SDS011;16475;52.650;8.116;2023-05-09T06:56:03;10.93;;;3.90;;
29534;SDS011;16475;52.650;8.116;2023-05-09T06:58:28;11.27;;;4.90;;
29534;SDS011;16475;52.650;8.116;2023-05-09T07:00:54;4.50;;;3.67;;
29534;SDS011;16475;52.650;8.116;2023-05-09T07:03:20;10.70;;;3.53;;
29534;SDS011;16475;52.650;8.116;2023-05-09T07:05:45;8.20;;;5.20;;
29534;SDS011;16475;52.650;8.116;2023-05-09T07:08:10;9.63;;;4.37;;
29534;SDS011;16475;52.650;8.116;2023-05-09T07:10:36;4.17;;;3.30;;
29534;SDS011;16475;52.650;8.116;2023-05-09T07:13:02;4.47;;;3.13;;
29534;SDS011;16475;52.650;8.116;2023-05-09T07:15:28;4.40;;;3.37;;
29534;SDS011;16475;52.650;8.116;2023-05-09T07:17:53;5.53;;;3.07;;
29534;SDS011;16475;52.650;8.116;2023-05-09T07:20:18;5.87;;;3.37;;
29534;SDS011;16475;52.650;8.116;2023-05-09T07:22:44;10.17;;;4.30;;
29534;SDS011;16475;52.650;8.116;2023-05-09T07:25:09;9.03;;;4.00;;
29534;SDS011;16475;52.650;8.116;2023-05-09T07:27:35;5.63;;;3.03;;
29534;SDS011;16475;52.650;8.116;2023-05-09T07:30:02;4.57;;;4.13;;
29534;SDS011;16475;52.650;8.116;2023-05-09T07:32:28;5.07;;;4.30;;
29534;SDS011;16475;52.650;8.116;2023-05-09T07:34:53;4.87;;;3.87;;
29534;SDS011;16475;52.650;8.116;2023-05-09T07:37:19;7.63;;;3.40;;
29534;SDS011;16475;52.650;8.116;2023-05-09T07:39:44;27.03;;;4.47;;
29534;SDS011;16475;52.650;8.116;2023-05-09T07:42:11;4.23;;;3.00;;
29534;SDS011;16475;52.650;8.116;2023-05-09T07:44:36;10.20;;;5.80;;
29534;SDS011;16475;52.650;8.116;2023-05-09T07:47:02;4.40;;;3.40;;
29534;SDS011;16475;52.650;8.116;2023-05-09T07:49:29;4.80;;;3.57;;
29534;SDS011;16475;52.650;8.116;2023-05-09T07:51:54;5.20;;;3.40;;
29534;SDS011;16475;52.650;8.116;2023-05-09T07:54:20;5.60;;;3.20;;
29534;SDS011;16475;52.650;8.116;2023-05-09T07:56:45;9.23;;;4.07;;
29534;SDS011;16475;52.650;8.116;2023-05-09T07:59:10;9.27;;;4.80;;
29534;SDS011;16475;52.650;8.116;2023-05-09T08:01:36;6.67;;;4.47;;
29534;SDS011;16475;52.650;8.116;2023-05-09T08:04:01;5.63;;;4.43;;
29534;SDS011;16475;52.650;8.116;2023-05-09T08:06:29;11.23;;;5.23;;
29534;SDS011;16475;52.650;8.116;2023-05-09T08:08:54;5.03;;;4.30;;
29534;SDS011;16475;52.650;8.116;2023-05-09T08:11:19;5.43;;;3.63;;
29534;SDS011;16475;52.650;8.116;2023-05-09T08:13:45;6.10;;;4.47;;
29534;SDS011;16475;52.650;8.116;2023-05-09T08:16:12;8.23;;;3.63;;
29534;SDS011;16475;52.650;8.116;2023-05-09T08:18:37;6.43;;;5.60;;
29534;SDS011;16475;52.650;8.116;2023-05-09T08:21:02;9.47;;;4.00;;
29534;SDS011;16475;52.650;8.116;2023-05-09T08:23:28;7.33;;;3.10;;
29534;SDS011;16475;52.650;8.116;2023-05-09T08:25:54;30.97;;;5.10;;
29534;SDS011;16475;52.650;8.116;2023-05-09T08:28:20;6.17;;;4.13;;
29534;SDS011;16475;52.650;8.116;2023-05-09T08:30:48;6.97;;;3.20;;
29534;SDS011;16475;52.650;8.116;2023-05-09T08:33:14;7.70;;;4.50;;
29534;SDS011;16475;52.650;8.116;2023-05-09T08:35:40;8.70;;;5.00;;
29534;SDS011;16475;52.650;8.116;2023-05-09T08:38:05;7.47;;;3.43;;
29534;SDS011;16475;52.650;8.116;2023-05-09T08:40:34;5.07;;;2.80;;
29534;SDS011;16475;52.650;8.116;2023-05-09T08:42:59;11.27;;;2.80;;
29534;SDS011;16475;52.650;8.116;2023-05-09T08:45:25;8.50;;;4.73;;
29534;SDS011;16475;52.650;8.116;2023-05-09T08:47:53;6.60;;;4.33;;
29534;SDS011;16475;52.650;8.116;2023-05-09T08:50:19;6.23;;;3.77;;
29534;SDS011;16475;52.650;8.116;2023-05-09T08:52:44;7.47;;;4.40;;
29534;SDS011;16475;52.650;8.116;2023-05-09T08:55:10;15.17;;;4.57;;
29534;SDS011;16475;52.650;8.116;2023-05-09T08:57:36;6.00;;;4.10;;
29534;SDS011;16475;52.650;8.116;2023-05-09T09:00:04;6.73;;;3.37;;
29534;SDS011;16475;52.650;8.116;2023-05-09T09:02:31;11.00;;;5.27;;
29534;SDS011;16475;52.650;8.116;2023-05-09T09:04:57;4.73;;;3.60;;
29534;SDS011;16475;52.650;8.116;2023-05-09T09:07:22;7.77;;;4.33;;
29534;SDS011;16475;52.650;8.116;2023-05-09T09:09:49;8.30;;;4.77;;
29534;SDS011;16475;52.650;8.116;2023-05-09T09:12:16;9.70;;;4.63;;
29534;SDS011;16475;52.650;8.116;2023-05-09T09:14:47;9.57;;;6.13;;
29534;SDS011;16475;52.650;8.116;2023-05-09T09:17:15;6.80;;;4.43;;
29534;SDS011;16475;52.650;8.116;2023-05-09T09:19:43;4.70;;;3.80;;
29534;SDS011;16475;52.650;8.116;2023-05-09T09:22:10;11.13;;;5.60;;
29534;SDS011;16475;52.650;8.116;2023-05-09T09:24:38;7.57;;;4.60;;
29534;SDS011;16475;52.650;8.116;2023-05-09T09:27:03;3.70;;;3.30;;
29534;SDS011;16475;52.650;8.116;2023-05-09T09:29:30;13.13;;;6.20;;
29534;SDS011;16475;52.650;8.116;2023-05-09T09:31:59;6.40;;;4.97;;
29534;SDS011;16475;52.650;8.116;2023-05-09T09:34:26;11.23;;;6.00;;
29534;SDS011;16475;52.650;8.116;2023-05-09T09:36:51;9.33;;;5.37;;
29534;SDS011;16475;52.650;8.116;2023-05-09T09:39:17;5.87;;;3.93;;
29534;SDS011;16475;52.650;8.116;2023-05-09T09:41:42;6.00;;;4.20;;
29534;SDS011;16475;52.650;8.116;2023-05-09T09:44:09;9.63;;;4.20;;
29534;SDS011;16475;52.650;8.116;2023-05-09T09:49:17;7.63;;;5.30;;
29534;SDS011;16475;52.650;8.116;2023-05-09T09:51:44;12.70;;;5.30;;
29534;SDS011;16475;52.650;8.116;2023-05-09T09:54:14;11.00;;;5.60;;
29534;SDS011;16475;52.650;8.116;2023-05-09T09:56:40;11.13;;;3.97;;
29534;SDS011;16475;52.650;8.116;2023-05-09T09:59:07;4.40;;;2.97;;
29534;SDS011;16475;52.650;8.116;2023-05-09T10:04:19;11.50;;;5.93;;
29534;SDS011;16475;52.650;8.116;2023-05-09T10:06:55;7.97;;;4.17;;
29534;SDS011;16475;52.650;8.116;2023-05-09T10:09:24;6.60;;;5.17;;
29534;SDS011;16475;52.650;8.116;2023-05-09T10:11:51;5.90;;;3.97;;
29534;SDS011;16475;52.650;8.116;2023-05-09T10:14:18;11.60;;;5.73;;
29534;SDS011;16475;52.650;8.116;2023-05-09T10:16:44;6.13;;;2.70;;
29534;SDS011;16475;52.650;8.116;2023-05-09T10:19:11;7.90;;;4.27;;
29534;SDS011;16475;52.650;8.116;2023-05-09T10:21:37;7.90;;;4.83;;
29534;SDS011;16475;52.650;8.116;2023-05-09T10:24:03;7.73;;;4.53;;
29534;SDS011;16475;52.650;8.116;2023-05-09T10:26:29;7.33;;;3.93;;
29534;SDS011;16475;52.650;8.116;2023-05-09T10:28:56;11.90;;;4.03;;
29534;SDS011;16475;52.650;8.116;2023-05-09T10:31:26;12.50;;;4.87;;
29534;SDS011;16475;52.650;8.116;2023-05-09T10:33:52;5.00;;;3.33;;
29534;SDS011;16475;52.650;8.116;2023-05-09T10:36:20;11.60;;;5.37;;
29534;SDS011;16475;52.650;8.116;2023-05-09T10:38:46;11.83;;;5.03;;
29534;SDS011;16475;52.650;8.116;2023-05-09T10:41:13;11.53;;;4.70;;
29534;SDS011;16475;52.650;8.116;2023-05-09T10:43:39;10.23;;;6.23;;
29534;SDS011;16475;52.650;8.116;2023-05-09T10:46:04;4.73;;;2.87;;
29534;SDS011;16475;52.650;8.116;2023-05-09T10:48:31;12.77;;;5.43;;
29534;SDS011;16475;52.650;8.116;2023-05-09T10:50:57;6.47;;;4.07;;
29534;SDS011;16475;52.650;8.116;2023-05-09T10:53:31;6.90;;;4.20;;
29534;SDS011;16475;52.650;8.116;2023-05-09T10:56:04;10.00;;;4.23;;
29534;SDS011;16475;52.650;8.116;2023-05-09T10:58:30;11.17;;;5.03;;
29534;SDS011;16475;52.650;8.116;2023-05-09T11:00:58;6.80;;;3.63;;
29534;SDS011;16475;52.650;8.116;2023-05-09T11:03:25;5.97;;;3.47;;
29534;SDS011;16475;52.650;8.116;2023-05-09T11:05:52;26.47;;;4.17;;
29534;SDS011;16475;52.650;8.116;2023-05-09T11:10:54;9.60;;;4.43;;
29534;SDS011;16475;52.650;8.116;2023-05-09T11:13:22;6.40;;;4.53;;
29534;SDS011;16475;52.650;8.116;2023-05-09T11:18:29;7.73;;;5.20;;
29534;SDS011;16475;52.650;8.116;2023-05-09T11:20:55;4.50;;;2.90;;
29534;SDS011;16475;52.650;8.116;2023-05-09T11:23:21;12.30;;;5.30;;
29534;SDS011;16475;52.650;8.116;2023-05-09T11:25:50;11.77;;;5.20;;
29534;SDS011;16475;52.650;8.116;2023-05-09T11:28:26;10.37;;;5.50;;
29534;SDS011;16475;52.650;8.116;2023-05-09T11:30:52;11.77;;;6.10;;
29534;SDS011;16475;52.650;8.116;2023-05-09T11:33:27;11.63;;;6.43;;
29534;SDS011;16475;52.650;8.116;2023-05-09T11:38:42;6.37;;;3.20;;
29534;SDS011;16475;52.650;8.116;2023-05-09T11:41:08;5.53;;;4.10;;
29534;SDS011;16475;52.650;8.116;2023-05-09T11:43:36;4.70;;;4.20;;
29534;SDS011;16475;52.650;8.116;2023-05-09T11:46:02;6.30;;;4.00;;
29534;SDS011;16475;52.650;8.116;2023-05-09T11:48:28;10.50;;;4.00;;
29534;SDS011;16475;52.650;8.116;2023-05-09T11:50:53;9.80;;;5.53;;
29534;SDS011;16475;52.650;8.116;2023-05-09T11:53:19;9.00;;;5.20;;
29534;SDS011;16475;52.650;8.116;2023-05-09T11:55:44;9.93;;;4.07;;
29534;SDS011;16475;52.650;8.116;2023-05-09T11:58:10;7.67;;;3.70;;
29534;SDS011;16475;52.650;8.116;2023-05-09T12:00:35;11.00;;;5.00;;
29534;SDS011;16475;52.650;8.116;2023-05-09T12:03:08;8.33;;;4.10;;
29534;SDS011;16475;52.650;8.116;2023-05-09T12:05:33;11.70;;;4.50;;
29534;SDS011;16475;52.650;8.116;2023-05-09T12:08:02;15.10;;;5.40;;
29534;SDS011;16475;52.650;8.116;2023-05-09T12:10:28;15.67;;;6.60;;
29534;SDS011;16475;52.650;8.116;2023-05-09T12:12:54;9.33;;;4.47;;
29534;SDS011;16475;52.650;8.116;2023-05-09T12:15:20;5.53;;;3.80;;
29534;SDS011;16475;52.650;8.116;2023-05-09T12:17:46;8.50;;;4.67;;
29534;SDS011;16475;52.650;8.116;2023-05-09T12:20:11;6.07;;;3.60;;
29534;SDS011;16475;52.650;8.116;2023-05-09T12:22:37;7.10;;;5.10;;
29534;SDS011;16475;52.650;8.116;2023-05-09T12:25:07;8.50;;;6.37;;
29534;SDS011;16475;52.650;8.116;2023-05-09T12:27:34;6.87;;;4.77;;
29534;SDS011;16475;52.650;8.116;2023-05-09T12:30:00;5.60;;;4.47;;
29534;SDS011;16475;52.650;8.116;2023-05-09T12:32:27;10.17;;;5.17;;
29534;SDS011;16475;52.650;8.116;2023-05-09T12:34:57;11.43;;;5.80;;
29534;SDS011;16475;52.650;8.116;2023-05-09T12:37:23;6.60;;;4.00;;
29534;SDS011;16475;52.650;8.116;2023-05-09T12:42:31;7.20;;;3.47;;
29534;SDS011;16475;52.650;8.116;2023-05-09T12:44:57;4.20;;;3.23;;
29534;SDS011;16475;52.650;8.116;2023-05-09T12:47:25;6.87;;;3.73;;
29534;SDS011;16475;52.650;8.116;2023-05-09T12:49:51;11.00;;;4.90;;
29534;SDS011;16475;52.650;8.116;2023-05-09T12:52:17;14.07;;;4.63;;
29534;SDS011;16475;52.650;8.116;2023-05-09T12:54:47;5.00;;;4.47;;
29534;SDS011;16475;52.650;8.116;2023-05-09T12:57:19;6.43;;;4.17;;
29534;SDS011;16475;52.650;8.116;2023-05-09T12:59:46;10.53;;;4.47;;
29534;SDS011;16475;52.650;8.116;2023-05-09T13:02:12;4.03;;;2.73;;
29534;SDS011;16475;52.650;8.116;2023-05-09T13:04:37;9.47;;;4.30;;
29534;SDS011;16475;52.650;8.116;2023-05-09T13:07:06;6.00;;;3.93;;
29534;SDS011;16475;52.650;8.116;2023-05-09T13:09:32;5.10;;;3.73;;
29534;SDS011;16475;52.650;8.116;2023-05-09T13:11:58;10.97;;;5.57;;
29534;SDS011;16475;52.650;8.116;2023-05-09T13:14:24;7.60;;;4.60;;
29534;SDS011;16475;52.650;8.116;2023-05-09T13:16:49;7.47;;;5.20;;
29534;SDS011;16475;52.650;8.116;2023-05-09T13:19:15;9.10;;;5.53;;
29534;SDS011;16475;52.650;8.116;2023-05-09T13:21:40;15.07;;;8.77;;
29534;SDS011;16475;52.650;8.116;2023-05-09T13:24:05;10.30;;;5.00;;
29534;SDS011;16475;52.650;8.116;2023-05-09T13:26:31;8.37;;;3.97;;
29534;SDS011;16475;52.650;8.116;2023-05-09T13:28:57;7.57;;;4.90;;
29534;SDS011;16475;52.650;8.116;2023-05-09T13:31:23;6.43;;;3.33;;
29534;SDS011;16475;52.650;8.116;2023-05-09T13:33:49;20.47;;;6.33;;
29534;SDS011;16475;52.650;8.116;2023-05-09T13:36:14;7.57;;;5.20;;
29534;SDS011;16475;52.650;8.116;2023-05-09T13:38:40;7.80;;;5.20;;
29534;SDS011;16475;52.650;8.116;2023-05-09T13:41:06;6.37;;;4.23;;
29534;SDS011;16475;52.650;8.116;2023-05-09T13:43:32;6.73;;;4.73;;
29534;SDS011;16475;52.650;8.116;2023-05-09T13:45:57;11.43;;;4.70;;
29534;SDS011;16475;52.650;8.116;2023-05-09T13:48:23;11.90;;;6.27;;
29534;SDS011;16475;52.650;8.116;2023-05-09T13:50:49;6.90;;;4.43;;
29534;SDS011;16475;52.650;8.116;2023-05-09T13:53:14;9.00;;;4.70;;
29534;SDS011;16475;52.650;8.116;2023-05-09T13:55:40;9.83;;;5.50;;
29534;SDS011;16475;52.650;8.116;2023-05-09T13:58:05;8.17;;;5.17;;
29534;SDS011;16475;52.650;8.116;2023-05-09T14:00:31;8.60;;;4.33;;
29534;SDS011;16475;52.650;8.116;2023-05-09T14:02:57;7.77;;;5.03;;
29534;SDS011;16475;52.650;8.116;2023-05-09T14:05:22;6.00;;;3.93;;
29534;SDS011;16475;52.650;8.116;2023-05-09T14:07:48;3.80;;;3.50;;
29534;SDS011;16475;52.650;8.116;2023-05-09T14:10:13;5.70;;;4.23;;
29534;SDS011;16475;52.650;8.116;2023-05-09T14:12:38;3.97;;;3.30;;
29534;SDS011;16475;52.650;8.116;2023-05-09T14:15:05;2.97;;;2.40;;
29534;SDS011;16475;52.650;8.116;2023-05-09T14:17:31;7.03;;;2.67;;
29534;SDS011;16475;52.650;8.116;2023-05-09T14:19:57;2.70;;;2.10;;
29534;SDS011;16475;52.650;8.116;2023-05-09T14:22:22;4.77;;;3.07;;
29534;SDS011;16475;52.650;8.116;2023-05-09T14:24:47;4.30;;;2.83;;
29534;SDS011;16475;52.650;8.116;2023-05-09T14:27:13;9.73;;;2.80;;
29534;SDS011;16475;52.650;8.116;2023-05-09T14:29:38;2.90;;;2.70;;
29534;SDS011;16475;52.650;8.116;2023-05-09T14:32:04;3.30;;;3.00;;
29534;SDS011;16475;52.650;8.116;2023-05-09T14:34:32;6.70;;;3.20;;
29534;SDS011;16475;52.650;8.116;2023-05-09T14:36:57;4.67;;;2.67;;
29534;SDS011;16475;52.650;8.116;2023-05-09T14:39:23;3.67;;;3.00;;
29534;SDS011;16475;52.650;8.116;2023-05-09T14:41:48;3.40;;;2.37;;
29534;SDS011;16475;52.650;8.116;2023-05-09T14:44:14;5.97;;;3.00;;
29534;SDS011;16475;52.650;8.116;2023-05-09T14:46:40;3.30;;;3.00;;
29534;SDS011;16475;52.650;8.116;2023-05-09T14:49:05;2.87;;;2.30;;
29534;SDS011;16475;52.650;8.116;2023-05-09T14:51:31;5.30;;;2.43;;
29534;SDS011;16475;52.650;8.116;2023-05-09T14:53:57;3.23;;;2.70;;
29534;SDS011;16475;52.650;8.116;2023-05-09T14:56:23;4.50;;;3.03;;
29534;SDS011;16475;52.650;8.116;2023-05-09T14:58:48;6.83;;;2.40;;
29534;SDS011;16475;52.650;8.116;2023-05-09T15:01:14;6.10;;;3.20;;
29534;SDS011;16475;52.650;8.116;2023-05-09T15:03:40;3.20;;;2.70;;
29534;SDS011;16475;52.650;8.116;2023-05-09T15:06:05;5.07;;;3.23;;
29534;SDS011;16475;52.650;8.116;2023-05-09T15:08:30;2.80;;;2.57;;
29534;SDS011;16475;52.650;8.116;2023-05-09T15:10:56;3.90;;;3.20;;
29534;SDS011;16475;52.650;8.116;2023-05-09T15:13:21;8.80;;;5.07;;
29534;SDS011;16475;52.650;8.116;2023-05-09T15:15:47;14.47;;;4.10;;